Time;durP1;ratioP1;P1;durP2;ratioP2;P2;SDS_P1;SDS_P2;PMS_P1;PMS_P2;Temp;Humidity;BMP_temperature;BMP_pressure;BME280_temperature;BME280_humidity;BME280_pressure;Samples;Min_cycle;Max_cycle;Signal;HPM_P1;HPM_P2
2023/10/27 03:01:58;;;;;;;3.03;1.73;;;25.00;39.90;;;;;;5243058;22;45826;-89
2023/10/27 03:04:26;;;;;;;3.42;1.60;;;24.90;39.90;;;;;;4919774;28;45296;-91
2023/10/27 03:06:52;;;;;;;3.33;1.70;;;24.90;39.90;;;;;;4918876;28;44884;-89
2023/10/27 03:09:18;;;;;;;3.65;1.67;;;24.90;39.90;;;;;;4955009;28;44729;-91
2023/10/27 03:11:44;;;;;;;3.83;1.80;;;25.00;39.90;;;;;;4923982;28;45370;-88
2023/10/27 03:14:11;;;;;;;3.90;1.70;;;25.00;39.90;;;;;;4939835;28;45171;-88
2023/10/27 03:16:39;;;;;;;3.10;1.63;;;24.90;39.90;;;;;;4935312;28;44934;-93
2023/10/27 03:19:05;;;;;;;2.87;1.60;;;24.90;39.90;;;;;;4958954;28;44808;-91
2023/10/27 03:21:31;;;;;;;3.63;1.80;;;24.90;39.90;;;;;;4935073;28;45327;-87
2023/10/27 03:23:57;;;;;;;3.08;1.63;;;24.90;39.90;;;;;;4956039;28;45176;-90
2023/10/27 03:26:26;;;;;;;3.80;1.80;;;24.90;39.90;;;;;;4957487;28;44876;-87
2023/10/27 03:28:52;;;;;;;3.45;1.60;;;24.90;39.90;;;;;;4924164;28;44965;-91
2023/10/27 03:31:19;;;;;;;3.17;1.52;;;24.90;40.00;;;;;;4934978;28;47031;-91
2023/10/27 03:33:45;;;;;;;3.63;1.40;;;24.90;39.90;;;;;;4947499;28;44813;-88
2023/10/27 03:36:14;;;;;;;2.60;1.50;;;24.90;39.90;;;;;;4936475;28;45244;-91
2023/10/27 03:38:39;;;;;;;3.00;1.70;;;24.90;39.90;;;;;;4968583;28;45211;-88
2023/10/27 03:41:05;;;;;;;2.43;1.40;;;24.90;39.90;;;;;;4938700;28;45335;-88
2023/10/27 03:43:34;;;;;;;2.90;1.40;;;24.90;40.00;;;;;;4939456;28;45201;-91
2023/10/27 03:46:03;;;;;;;5.88;1.70;;;24.90;39.90;;;;;;4937615;28;45383;-92
2023/10/27 03:48:29;;;;;;;3.73;1.50;;;24.90;39.90;;;;;;4950171;28;45017;-89
2023/10/27 03:50:57;;;;;;;3.10;1.53;;;24.90;40.00;;;;;;4915604;28;46297;-93
2023/10/27 03:53:23;;;;;;;3.60;1.58;;;24.90;40.60;;;;;;4938602;28;44722;-91
2023/10/27 03:55:52;;;;;;;3.50;1.67;;;24.90;40.00;;;;;;4936645;28;45208;-91
2023/10/27 03:58:18;;;;;;;3.05;1.38;;;24.80;39.90;;;;;;4921879;28;45688;-90
2023/10/27 04:00:44;;;;;;;3.00;1.30;;;24.90;40.00;;;;;;4936762;28;46078;-89
2023/10/27 04:03:13;;;;;;;2.35;1.40;;;24.90;40.00;;;;;;4937240;28;45548;-89
2023/10/27 04:05:39;;;;;;;3.13;1.55;;;24.90;40.00;;;;;;4937293;28;45241;-88
2023/10/27 04:08:05;;;;;;;2.23;1.20;;;24.90;40.00;;;;;;4938837;28;44773;-91
2023/10/27 04:10:32;;;;;;;2.53;1.40;;;24.80;39.90;;;;;;4937776;28;45347;-88
2023/10/27 04:12:58;;;;;;;2.75;1.10;;;24.90;40.00;;;;;;4942024;28;45211;-89
2023/10/27 04:15:26;;;;;;;2.13;1.15;;;24.80;39.90;;;;;;4932417;28;45371;-90
2023/10/27 04:26:11;;;;;;;2.33;1.00;;;24.80;40.00;;;;;;4861478;29;45365;-88
2023/10/27 05:01:00;;;;;;;1.83;1.00;;;24.80;40.10;;;;;;4643973;30;45398;-92
2023/10/27 05:08:48;;;;;;;1.73;0.90;;;24.80;40.20;;;;;;4648262;30;45738;-91
2023/10/27 05:41:06;;;;;;;2.08;1.10;;;24.70;40.20;;;;;;5004427;22;46906;-50
2023/10/27 05:43:31;;;;;;;2.42;1.10;;;24.70;40.30;;;;;;4983402;28;45077;-51
2023/10/27 05:45:57;;;;;;;2.03;1.07;;;24.70;40.20;;;;;;4967872;28;45497;-50
2023/10/27 05:48:22;;;;;;;3.20;1.17;;;24.70;40.30;;;;;;4955423;28;46059;-50
2023/10/27 05:50:48;;;;;;;2.25;1.10;;;24.70;40.20;;;;;;4970081;28;45520;-51
2023/10/27 05:53:15;;;;;;;2.03;1.00;;;24.70;40.30;;;;;;4982532;28;45323;-51
2023/10/27 05:55:41;;;;;;;2.15;1.10;;;24.70;40.20;;;;;;4983414;28;44792;-50
2023/10/27 05:58:07;;;;;;;1.80;1.00;;;24.70;40.20;;;;;;4947664;28;45809;-51
2023/10/27 06:00:32;;;;;;;3.08;1.10;;;24.70;40.20;;;;;;4957118;28;45501;-48
2023/10/27 06:02:58;;;;;;;2.73;1.20;;;24.70;40.30;;;;;;4963326;28;46617;-50
2023/10/27 06:05:24;;;;;;;2.63;1.47;;;24.70;40.20;;;;;;4976983;28;45273;-51
2023/10/27 06:07:50;;;;;;;3.80;1.05;;;24.70;40.20;;;;;;4972576;28;45806;-50
2023/10/27 06:10:15;;;;;;;2.45;1.20;;;24.70;40.20;;;;;;4976534;28;45348;-50
2023/10/27 06:12:41;;;;;;;3.38;1.40;;;24.70;40.20;;;;;;4987176;28;45217;-50
2023/10/27 06:15:09;;;;;;;2.60;1.20;;;24.70;40.30;;;;;;4978746;28;60649;-51
2023/10/27 06:17:34;;;;;;;3.35;1.38;;;24.70;40.30;;;;;;4920075;28;46102;-49
2023/10/27 06:22:30;;;;;;;3.28;1.27;;;24.70;40.20;;;;;;4979231;28;45099;-51
2023/10/27 06:24:56;;;;;;;7.87;4.63;;;24.70;40.30;;;;;;4987950;28;45033;-50
2023/10/27 06:27:22;;;;;;;10.32;6.20;;;24.70;40.30;;;;;;4974759;28;45544;-54
2023/10/27 06:29:48;;;;;;;10.48;6.25;;;24.70;40.30;;;;;;4980372;28;44966;-50
2023/10/27 06:32:14;;;;;;;11.07;6.35;;;24.60;40.20;;;;;;4965792;28;45731;-54
2023/10/27 06:34:40;;;;;;;11.18;6.00;;;24.70;40.30;;;;;;4953441;28;46000;-50
2023/10/27 06:37:06;;;;;;;8.80;5.50;;;24.70;40.20;;;;;;4977154;28;46148;-51
2023/10/27 06:39:32;;;;;;;7.40;4.80;;;24.70;40.20;;;;;;4975121;28;45935;-53
2023/10/27 06:41:58;;;;;;;6.83;4.53;;;24.70;40.10;;;;;;4979292;28;45238;-52
2023/10/27 06:44:24;;;;;;;7.35;4.40;;;24.70;40.10;;;;;;4990886;28;45540;-52
2023/10/27 06:46:50;;;;;;;7.53;3.70;;;24.70;40.10;;;;;;4967619;28;45544;-50
2023/10/27 06:49:15;;;;;;;5.25;3.03;;;24.70;40.10;;;;;;4971532;28;45289;-51
2023/10/27 06:51:41;;;;;;;5.65;3.05;;;24.70;40.10;;;;;;4973289;28;45209;-50
2023/10/27 06:54:07;;;;;;;5.55;2.65;;;24.80;40.10;;;;;;4974439;28;45428;-53
2023/10/27 06:56:32;;;;;;;4.38;2.53;;;24.70;40.00;;;;;;4978359;28;45408;-49
2023/10/27 06:58:58;;;;;;;3.63;2.20;;;24.80;40.10;;;;;;4980597;28;45454;-51
2023/10/27 07:01:23;;;;;;;3.47;2.22;;;24.80;40.10;;;;;;4951719;28;45254;-51
2023/10/27 07:03:50;;;;;;;3.55;2.05;;;24.80;40.10;;;;;;4984587;28;45360;-49
2023/10/27 07:06:17;;;;;;;4.43;2.10;;;24.80;40.00;;;;;;4965245;28;45602;-50
2023/10/27 07:08:43;;;;;;;2.88;1.60;;;24.80;40.00;;;;;;4985651;28;45055;-49
2023/10/27 07:11:09;;;;;;;2.85;1.65;;;24.80;40.00;;;;;;4959851;28;45568;-53
2023/10/27 07:13:35;;;;;;;2.15;1.30;;;24.90;40.00;;;;;;4988309;28;45581;-53
2023/10/27 07:16:01;;;;;;;2.75;1.50;;;24.90;40.00;;;;;;4971353;28;45370;-51
2023/10/27 07:18:26;;;;;;;3.22;1.50;;;24.90;39.90;;;;;;4970091;28;45404;-53
2023/10/27 07:20:53;;;;;;;2.90;1.30;;;24.90;39.90;;;;;;4976976;28;45582;-51
2023/10/27 07:23:19;;;;;;;2.30;1.13;;;25.00;39.90;;;;;;4968049;28;46214;-50
2023/10/27 07:25:44;;;;;;;2.15;1.10;;;25.00;39.80;;;;;;4973559;28;46429;-53
2023/10/27 07:28:10;;;;;;;2.10;0.90;;;25.00;39.80;;;;;;4984428;28;45391;-51
2023/10/27 07:30:35;;;;;;;2.27;1.40;;;25.10;39.80;;;;;;4964398;28;45438;-49
2023/10/27 07:33:01;;;;;;;2.67;1.30;;;25.10;39.80;;;;;;4962820;28;45533;-49
2023/10/27 07:35:28;;;;;;;2.53;1.20;;;25.10;39.70;;;;;;4970382;28;45720;-48
2023/10/27 07:41:25;;;;;;;2.38;1.10;;;25.20;39.70;;;;;;5051795;23;45120;-81
2023/10/27 07:43:51;;;;;;;2.57;0.93;;;25.20;39.70;;;;;;4999684;28;45620;-80
2023/10/27 07:46:17;;;;;;;3.03;1.17;;;25.20;39.60;;;;;;4960803;28;46537;-83
2023/10/27 07:48:43;;;;;;;2.40;1.00;;;25.30;39.60;;;;;;4985174;28;45186;-80
2023/10/27 07:51:09;;;;;;;1.80;1.00;;;25.30;39.60;;;;;;4961504;28;45506;-81
2023/10/27 07:53:35;;;;;;;1.70;0.95;;;25.40;39.60;;;;;;4972403;28;45779;-81
2023/10/27 07:56:00;;;;;;;2.57;1.10;;;25.40;39.50;;;;;;4970398;28;45587;-81
2023/10/27 07:58:26;;;;;;;2.47;1.13;;;25.40;39.40;;;;;;4982831;28;45513;-80
2023/10/27 08:00:53;;;;;;;2.13;0.98;;;25.50;39.50;;;;;;4975122;28;45222;-83
2023/10/27 08:03:21;;;;;;;1.75;0.82;;;25.50;39.40;;;;;;4978701;28;45730;-82
2023/10/27 08:05:50;;;;;;;1.83;0.90;;;25.50;39.40;;;;;;4962452;28;45497;-80
2023/10/27 08:08:17;;;;;;;2.80;0.90;;;25.50;39.30;;;;;;4984002;28;45192;-82
2023/10/27 08:10:46;;;;;;;1.67;0.77;;;25.60;39.30;;;;;;4985296;28;45267;-86
2023/10/27 08:13:13;;;;;;;2.13;0.70;;;25.60;39.30;;;;;;4968378;28;45476;-79
2023/10/27 08:15:38;;;;;;;1.75;0.80;;;25.60;39.20;;;;;;4966162;28;47403;-82
2023/10/27 08:18:05;;;;;;;2.13;0.90;;;25.70;39.20;;;;;;4982266;28;45402;-79
2023/10/27 08:20:30;;;;;;;1.40;0.70;;;25.70;39.20;;;;;;4978752;28;46362;-85
2023/10/27 08:22:56;;;;;;;1.50;0.70;;;25.70;39.10;;;;;;4985202;28;45070;-83
2023/10/27 08:25:23;;;;;;;1.85;0.77;;;25.80;39.20;;;;;;4964490;28;46245;-80
2023/10/27 08:27:50;;;;;;;1.53;0.70;;;25.80;39.10;;;;;;4985024;28;44678;-79
2023/10/27 08:30:16;;;;;;;1.63;0.70;;;25.80;39.00;;;;;;4978716;28;45352;-80
2023/10/27 08:32:42;;;;;;;1.88;0.90;;;25.90;39.10;;;;;;4964256;28;45205;-80
2023/10/27 08:35:08;;;;;;;2.40;1.00;;;25.90;39.00;;;;;;4974232;28;45417;-83
2023/10/27 08:37:34;;;;;;;1.70;0.70;;;25.90;39.00;;;;;;4999957;28;45217;-80
2023/10/27 08:40:00;;;;;;;1.52;0.70;;;26.00;39.00;;;;;;4983989;28;45587;-80
2023/10/27 08:42:28;;;;;;;3.03;1.00;;;26.00;39.00;;;;;;4982592;28;45163;-81
2023/10/27 08:44:54;;;;;;;1.50;0.80;;;26.10;38.90;;;;;;4953670;28;46315;-85
2023/10/27 08:47:21;;;;;;;1.80;0.80;;;26.10;38.90;;;;;;4976703;28;45093;-81
2023/10/27 08:49:46;;;;;;;1.40;0.80;;;26.10;38.80;;;;;;4969981;28;45336;-81
2023/10/27 08:52:12;;;;;;;1.20;0.70;;;26.20;38.80;;;;;;4956877;28;45654;-82
2023/10/27 08:54:41;;;;;;;2.28;0.80;;;26.20;38.80;;;;;;4968353;28;46524;-83
2023/10/27 08:57:06;;;;;;;1.30;0.70;;;26.20;38.80;;;;;;4974057;28;45230;-83
2023/10/27 08:59:32;;;;;;;2.07;0.83;;;26.30;38.80;;;;;;4976349;28;45396;-81
2023/10/27 09:01:58;;;;;;;1.47;0.67;;;26.30;38.80;;;;;;4972662;28;45306;-82
2023/10/27 09:04:24;;;;;;;1.93;0.73;;;26.30;38.80;;;;;;4958964;28;46016;-81
2023/10/27 09:06:50;;;;;;;1.75;0.73;;;26.30;38.70;;;;;;4962489;28;45545;-81
2023/10/27 09:09:16;;;;;;;1.30;0.60;;;26.40;38.70;;;;;;4985073;28;45033;-81
2023/10/27 09:11:47;;;;;;;1.38;0.70;;;26.40;38.60;;;;;;4973504;28;44757;-81
2023/10/27 09:14:18;;;;;;;1.87;0.70;;;26.50;38.70;;;;;;4966431;28;45950;-82
2023/10/27 09:16:44;;;;;;;1.80;0.80;;;26.50;38.60;;;;;;4990398;28;45619;-84
2023/10/27 09:19:46;;;;;;;1.60;0.80;;;26.50;38.60;;;;;;4983095;28;45720;-83
2023/10/27 09:22:15;;;;;;;1.27;0.55;;;26.60;38.60;;;;;;4975087;28;45607;-80
2023/10/27 09:24:41;;;;;;;1.52;0.70;;;26.60;38.50;;;;;;4971491;28;45999;-81
2023/10/27 09:27:06;;;;;;;1.50;0.70;;;26.60;38.50;;;;;;4958198;28;45156;-83
2023/10/27 09:29:42;;;;;;;1.63;0.63;;;26.70;38.60;;;;;;4979751;28;45315;-82
2023/10/27 09:32:26;;;;;;;1.48;0.70;;;26.70;38.50;;;;;;4971691;28;46376;-81
2023/10/27 09:35:15;;;;;;;1.45;0.60;;;26.70;38.40;;;;;;4980948;28;46572;-81
2023/10/27 09:37:43;;;;;;;1.05;0.50;;;26.80;38.50;;;;;;4973823;28;45629;-82
2023/10/27 09:40:11;;;;;;;1.05;0.60;;;26.80;38.40;;;;;;4985368;28;45383;-93
2023/10/27 09:42:37;;;;;;;1.23;0.60;;;26.80;38.50;;;;;;4960463;28;45562;-83
2023/10/27 09:45:11;;;;;;;0.85;0.40;;;26.80;38.40;;;;;;4965003;28;45912;-93
2023/10/27 09:47:47;;;;;;;0.70;0.40;;;26.90;38.40;;;;;;4959312;28;45190;-80
2023/10/27 09:50:14;;;;;;;1.50;0.50;;;26.90;38.40;;;;;;4977594;28;45410;-80
2023/10/27 09:52:41;;;;;;;1.85;0.60;;;26.90;38.40;;;;;;4959786;28;45498;-80
2023/10/27 09:55:07;;;;;;;1.80;0.60;;;26.90;38.30;;;;;;4993549;28;45392;-88
2023/10/27 09:57:33;;;;;;;1.50;0.60;;;26.90;38.30;;;;;;4973026;28;45533;-87
2023/10/27 09:59:59;;;;;;;1.63;0.57;;;27.00;38.30;;;;;;4975509;28;45391;-80
2023/10/27 10:02:25;;;;;;;1.38;0.60;;;27.00;39.00;;;;;;4974895;28;45337;-80
2023/10/27 10:04:50;;;;;;;1.08;0.50;;;27.00;38.30;;;;;;4959741;28;46572;-80
2023/10/27 10:07:44;;;;;;;1.13;0.60;;;27.00;38.30;;;;;;4996158;28;45750;-81
2023/10/27 10:10:18;;;;;;;0.60;0.40;;;27.00;38.30;;;;;;4973880;28;45090;-90
2023/10/27 10:13:03;;;;;;;1.55;0.52;;;27.10;38.30;;;;;;4975863;28;45477;-81
2023/10/27 10:15:37;;;;;;;1.27;0.57;;;27.10;38.20;;;;;;4985607;28;45376;-81
2023/10/27 10:18:06;;;;;;;1.45;0.60;;;27.10;38.20;;;;;;4967731;28;45180;-80
2023/10/27 10:20:53;;;;;;;1.30;0.60;;;27.20;38.30;;;;;;4960998;28;45277;-80
2023/10/27 10:23:19;;;;;;;0.83;0.43;;;27.10;38.20;;;;;;4966640;28;45221;-81
2023/10/27 10:25:50;;;;;;;1.52;0.55;;;27.20;38.20;;;;;;4958398;28;46179;-80
2023/10/27 10:28:18;;;;;;;1.40;0.60;;;27.20;38.20;;;;;;4980860;28;44606;-82
2023/10/27 10:30:45;;;;;;;2.00;0.60;;;27.20;38.20;;;;;;4989227;28;45262;-81
2023/10/27 10:33:16;;;;;;;0.98;0.60;;;27.20;38.10;;;;;;4982556;28;45160;-83
2023/10/27 10:35:43;;;;;;;1.40;0.55;;;27.20;38.10;;;;;;4980395;28;46075;-80
2023/10/27 10:38:35;;;;;;;1.30;0.60;;;27.20;38.10;;;;;;4959000;28;45477;-80
2023/10/27 10:41:02;;;;;;;1.23;0.50;;;27.20;38.10;;;;;;4977106;28;45657;-82
2023/10/27 10:43:34;;;;;;;1.38;0.70;;;27.20;38.10;;;;;;4972385;28;44733;-80
2023/10/27 10:46:04;;;;;;;0.82;0.43;;;27.20;38.00;;;;;;4961684;28;46435;-80
2023/10/27 10:48:32;;;;;;;1.35;0.60;;;27.30;38.10;;;;;;4977151;28;45494;-80
2023/10/27 10:51:03;;;;;;;1.77;0.60;;;27.30;38.10;;;;;;4979225;28;45412;-89
2023/10/27 10:53:30;;;;;;;1.50;0.60;;;27.30;38.10;;;;;;4979995;28;45501;-82
2023/10/27 10:56:00;;;;;;;1.40;0.57;;;27.30;38.00;;;;;;4978874;28;45599;-83
2023/10/27 10:58:30;;;;;;;1.45;0.60;;;27.30;38.00;;;;;;4996003;28;44836;-80
2023/10/27 11:00:56;;;;;;;1.25;0.50;;;27.30;38.00;;;;;;4942871;28;45477;-82
2023/10/27 11:03:23;;;;;;;1.45;0.47;;;27.30;38.00;;;;;;4977644;28;45852;-80
2023/10/27 11:05:51;;;;;;;1.55;0.73;;;27.30;37.90;;;;;;4973672;28;45335;-80
2023/10/27 11:08:28;;;;;;;1.37;0.63;;;27.30;37.90;;;;;;4981323;28;45577;-84
2023/10/27 11:11:01;;;;;;;1.50;0.70;;;27.30;37.90;;;;;;4984499;28;45563;-80
2023/10/27 11:13:27;;;;;;;1.40;0.40;;;27.30;37.90;;;;;;4974745;28;44919;-80
2023/10/27 11:15:53;;;;;;;1.60;0.60;;;27.30;37.80;;;;;;4943651;28;46490;-80
2023/10/27 11:18:19;;;;;;;1.30;0.50;;;27.30;37.80;;;;;;4986292;28;45624;-80
2023/10/27 11:20:45;;;;;;;1.38;0.45;;;27.30;38.40;;;;;;4999426;28;44933;-80
2023/10/27 11:23:12;;;;;;;1.63;0.68;;;27.30;37.80;;;;;;4983518;28;45067;-80
2023/10/27 11:25:41;;;;;;;1.70;0.50;;;27.30;37.50;;;;;;4966280;28;45925;-85
2023/10/27 11:28:26;;;;;;;1.70;0.50;;;27.30;37.80;;;;;;4972691;28;45210;-84
2023/10/27 11:31:01;;;;;;;1.25;0.50;;;27.30;37.80;;;;;;4980547;28;45085;-83
2023/10/27 11:33:28;;;;;;;1.25;0.50;;;27.30;37.80;;;;;;4983679;28;45678;-81
2023/10/27 11:35:56;;;;;;;1.40;0.50;;;27.30;37.70;;;;;;4984419;28;47366;-82
2023/10/27 11:38:25;;;;;;;1.80;0.60;;;27.30;37.80;;;;;;4968252;28;45480;-80
2023/10/27 11:40:51;;;;;;;1.60;0.70;;;27.30;37.70;;;;;;4968858;28;45840;-81
2023/10/27 11:43:18;;;;;;;0.68;0.50;;;27.30;37.70;;;;;;4968882;28;44855;-80
2023/10/27 11:45:45;;;;;;;1.30;0.50;;;27.30;37.70;;;;;;4980639;28;46076;-80
2023/10/27 11:48:13;;;;;;;1.43;0.70;;;27.30;37.70;;;;;;4981787;28;45148;-81
2023/10/27 11:50:38;;;;;;;1.85;0.60;;;27.30;37.70;;;;;;4963419;28;45572;-84
2023/10/27 11:53:04;;;;;;;0.60;0.50;;;27.30;37.70;;;;;;4984512;28;45148;-81
2023/10/27 11:55:31;;;;;;;2.03;0.60;;;27.30;37.60;;;;;;4976705;28;46503;-83
2023/10/27 11:57:56;;;;;;;0.93;0.40;;;27.30;37.60;;;;;;4982806;28;45555;-83
2023/10/27 12:00:23;;;;;;;1.33;0.53;;;27.30;37.60;;;;;;4974093;28;45437;-80
2023/10/27 12:02:49;;;;;;;1.33;0.60;;;27.30;37.60;;;;;;4965120;28;45555;-87
2023/10/27 12:05:24;;;;;;;0.80;0.40;;;27.30;37.60;;;;;;4963303;28;45529;-81
2023/10/27 12:07:51;;;;;;;0.80;0.43;;;27.30;37.60;;;;;;4983894;28;45486;-80
2023/10/27 12:10:19;;;;;;;1.97;0.53;;;27.30;37.60;;;;;;4968712;28;45452;-89
2023/10/27 12:12:45;;;;;;;1.50;0.50;;;27.30;37.50;;;;;;4957879;28;46102;-84
2023/10/27 12:15:14;;;;;;;1.33;0.50;;;27.30;37.50;;;;;;4994153;28;45218;-81
2023/10/27 12:17:40;;;;;;;1.33;0.70;;;27.30;37.60;;;;;;4998268;28;45688;-80
2023/10/27 12:20:06;;;;;;;1.65;0.60;;;27.30;37.50;;;;;;4982162;28;45618;-90
2023/10/27 12:22:33;;;;;;;1.20;0.60;;;27.30;37.60;;;;;;4982726;28;45195;-80
2023/10/27 12:24:58;;;;;;;1.13;0.60;;;27.30;37.50;;;;;;4981857;28;46231;-80
2023/10/27 12:27:24;;;;;;;0.90;0.53;;;27.30;37.50;;;;;;4961882;28;45242;-80
2023/10/27 12:29:50;;;;;;;1.65;0.60;;;27.30;37.50;;;;;;4949551;28;44744;-83
2023/10/27 12:32:17;;;;;;;1.40;0.57;;;27.30;37.50;;;;;;4959722;28;45319;-84
2023/10/27 12:34:45;;;;;;;1.27;0.50;;;27.30;37.50;;;;;;4966281;28;47865;-80
2023/10/27 12:37:11;;;;;;;1.35;0.52;;;27.30;37.50;;;;;;4973269;28;44990;-80
2023/10/27 12:39:36;;;;;;;1.70;0.60;;;27.30;37.50;;;;;;4965405;28;45349;-85
2023/10/27 12:42:05;;;;;;;0.90;0.53;;;27.30;37.50;;;;;;4973937;28;44843;-81
2023/10/27 12:44:32;;;;;;;1.50;0.57;;;27.30;37.50;;;;;;4973217;28;45662;-87
2023/10/27 12:46:58;;;;;;;1.27;0.60;;;27.30;37.50;;;;;;4966462;28;45282;-80
2023/10/27 12:49:25;;;;;;;1.45;0.60;;;27.30;37.40;;;;;;4984278;28;45672;-82
2023/10/27 12:51:50;;;;;;;0.93;0.50;;;27.30;37.50;;;;;;4961597;28;45458;-81
2023/10/27 12:54:17;;;;;;;2.10;0.80;;;27.30;38.00;;;;;;4981135;28;46068;-80
2023/10/27 12:56:42;;;;;;;1.25;0.50;;;27.30;37.50;;;;;;4957469;28;45532;-85
2023/10/27 12:59:09;;;;;;;1.05;0.40;;;27.30;37.40;;;;;;4972308;28;45542;-90
2023/10/27 13:01:35;;;;;;;1.40;0.50;;;27.30;37.40;;;;;;4964310;28;45410;-82
2023/10/27 13:04:02;;;;;;;1.30;0.50;;;27.40;37.50;;;;;;4990348;28;46532;-84
2023/10/27 13:06:28;;;;;;;1.13;0.50;;;27.40;37.50;;;;;;4969859;28;45222;-81
2023/10/27 13:08:54;;;;;;;0.93;0.55;;;27.40;37.50;;;;;;4955553;28;44899;-84
2023/10/27 13:11:19;;;;;;;1.23;0.60;;;27.40;37.50;;;;;;4953749;28;45419;-84
2023/10/27 13:13:45;;;;;;;1.23;0.60;;;27.40;37.40;;;;;;4972222;28;45398;-83
2023/10/27 13:16:14;;;;;;;1.33;0.57;;;27.40;37.40;;;;;;4950609;28;45452;-82
2023/10/27 13:18:39;;;;;;;1.35;0.50;;;27.40;37.40;;;;;;4981325;28;45151;-81
2023/10/27 13:21:14;;;;;;;1.15;0.50;;;27.40;37.40;;;;;;4977363;28;45678;-80
2023/10/27 13:23:40;;;;;;;0.80;0.40;;;27.40;37.40;;;;;;4980951;28;46485;-81
2023/10/27 13:26:05;;;;;;;1.20;0.50;;;27.40;37.40;;;;;;4969492;28;45559;-82
2023/10/27 13:28:31;;;;;;;1.08;0.60;;;27.40;37.40;;;;;;4965303;28;45649;-80
2023/10/27 13:30:59;;;;;;;1.50;0.70;;;27.40;37.40;;;;;;4962392;28;46092;-82
2023/10/27 13:33:25;;;;;;;2.25;0.65;;;27.40;37.40;;;;;;4976376;28;45554;-81
2023/10/27 13:36:08;;;;;;;2.20;0.77;;;27.40;37.40;;;;;;4979998;28;45397;-80
2023/10/27 13:38:38;;;;;;;1.52;0.55;;;27.40;37.30;;;;;;4981228;28;46043;-81
2023/10/27 13:41:04;;;;;;;1.65;0.70;;;27.40;37.30;;;;;;4964288;28;44916;-80
2023/10/27 13:43:30;;;;;;;0.82;0.50;;;27.40;37.40;;;;;;4976526;28;45763;-84
2023/10/27 13:46:00;;;;;;;1.60;0.60;;;27.40;37.30;;;;;;4961089;28;45814;-85
2023/10/27 13:48:27;;;;;;;1.48;0.50;;;27.40;37.30;;;;;;4977631;28;45191;-80
2023/10/27 13:50:55;;;;;;;1.13;0.53;;;27.40;37.30;;;;;;4955127;28;45397;-84
2023/10/27 13:53:31;;;;;;;2.05;0.70;;;27.40;37.30;;;;;;4962450;28;47167;-86
2023/10/27 13:55:58;;;;;;;1.50;0.55;;;27.40;37.30;;;;;;4980519;28;45174;-81
2023/10/27 13:58:26;;;;;;;1.67;0.63;;;27.40;37.30;;;;;;4966787;28;44760;-86
2023/10/27 14:00:54;;;;;;;0.80;0.43;;;27.40;37.30;;;;;;4949383;28;44697;-82
2023/10/27 14:03:21;;;;;;;0.70;0.40;;;27.40;37.30;;;;;;4949537;28;47814;-85
2023/10/27 14:05:56;;;;;;;0.85;0.60;;;27.40;37.30;;;;;;4963773;28;45590;-84
2023/10/27 14:08:25;;;;;;;1.42;0.60;;;27.40;37.30;;;;;;4997351;28;44851;-82
2023/10/27 14:10:50;;;;;;;1.38;0.68;;;27.40;37.40;;;;;;4943567;28;45264;-79
2023/10/27 14:13:16;;;;;;;1.20;0.50;;;27.40;37.30;;;;;;4961986;28;46433;-85
2023/10/27 14:15:48;;;;;;;1.23;0.50;;;27.40;37.40;;;;;;4944894;28;45216;-80
2023/10/27 14:18:14;;;;;;;1.08;0.52;;;27.40;37.30;;;;;;4979977;28;45231;-79
2023/10/27 14:20:42;;;;;;;1.48;0.60;;;27.40;37.30;;;;;;4980674;28;44789;-80
2023/10/27 14:23:09;;;;;;;2.00;0.70;;;27.40;37.30;;;;;;4971379;28;45541;-80
2023/10/27 14:25:35;;;;;;;1.10;0.50;;;27.40;37.30;;;;;;4943758;28;45048;-81
2023/10/27 14:28:02;;;;;;;1.05;0.50;;;27.40;37.30;;;;;;4979613;28;46056;-80
2023/10/27 14:30:28;;;;;;;0.57;0.40;;;27.40;37.30;;;;;;4941590;28;45163;-82
2023/10/27 14:32:54;;;;;;;0.87;0.50;;;27.40;37.30;;;;;;4946783;28;46717;-80
2023/10/27 14:35:20;;;;;;;1.25;0.43;;;27.40;37.30;;;;;;4971763;28;45479;-82
2023/10/27 14:37:47;;;;;;;1.17;0.60;;;27.40;37.30;;;;;;4950662;28;45390;-81
2023/10/27 14:40:14;;;;;;;1.42;0.60;;;27.40;37.30;;;;;;4976446;28;45262;-86
2023/10/27 14:42:40;;;;;;;1.80;0.60;;;27.40;37.30;;;;;;4963630;28;46306;-82
2023/10/27 14:45:11;;;;;;;1.35;0.60;;;27.40;37.30;;;;;;4977770;28;45201;-83
2023/10/27 14:47:37;;;;;;;1.50;0.77;;;27.40;37.30;;;;;;4975020;28;45228;-80
2023/10/27 14:50:05;;;;;;;1.95;0.60;;;27.40;37.40;;;;;;4945716;28;45343;-92
2023/10/27 14:52:31;;;;;;;1.10;0.60;;;27.40;37.30;;;;;;4948453;28;45587;-80
2023/10/27 14:54:57;;;;;;;0.85;0.40;;;27.40;37.30;;;;;;4978714;28;45046;-89
2023/10/27 14:57:24;;;;;;;1.10;0.60;;;27.40;37.30;;;;;;4977527;28;45228;-80
2023/10/27 14:59:51;;;;;;;1.35;0.47;;;27.40;37.30;;;;;;4950948;28;46113;-85
2023/10/27 15:02:18;;;;;;;0.68;0.43;;;27.40;37.30;;;;;;4972852;28;46359;-80
2023/10/27 15:04:44;;;;;;;1.23;0.60;;;27.40;37.30;;;;;;4981484;28;45316;-80
2023/10/27 15:07:10;;;;;;;1.55;0.63;;;27.40;37.40;;;;;;4992619;28;46119;-85
2023/10/27 15:09:36;;;;;;;0.77;0.40;;;27.40;37.30;;;;;;4979739;28;45226;-81
2023/10/27 15:12:05;;;;;;;1.50;0.60;;;27.40;37.90;;;;;;4991902;28;45474;-82
2023/10/27 15:14:31;;;;;;;1.20;0.63;;;27.40;37.30;;;;;;4977385;28;45209;-81
2023/10/27 15:16:57;;;;;;;1.00;0.52;;;27.40;37.30;;;;;;4972511;28;45143;-81
2023/10/27 15:19:24;;;;;;;1.70;0.70;;;27.40;37.30;;;;;;4960438;28;45190;-81
2023/10/27 15:21:49;;;;;;;1.27;0.60;;;27.40;37.30;;;;;;4970847;28;45554;-80
2023/10/27 15:24:16;;;;;;;2.35;0.60;;;27.40;37.40;;;;;;4951041;28;45164;-82
2023/10/27 15:26:42;;;;;;;1.00;0.50;;;27.40;37.40;;;;;;4961820;28;45024;-85
2023/10/27 15:29:07;;;;;;;1.38;0.70;;;27.40;37.40;;;;;;4968435;28;46613;-83
2023/10/27 15:31:34;;;;;;;1.40;0.70;;;27.40;37.40;;;;;;4971734;28;45572;-80
2023/10/27 15:34:00;;;;;;;0.70;0.50;;;27.40;37.40;;;;;;4977284;28;45546;-80
2023/10/27 15:36:26;;;;;;;0.90;0.52;;;27.40;37.40;;;;;;4960121;28;45686;-80
2023/10/27 15:38:54;;;;;;;1.10;0.63;;;27.40;37.40;;;;;;4976761;28;45139;-82
2023/10/27 15:41:24;;;;;;;1.80;0.65;;;27.40;37.40;;;;;;4973884;28;45375;-83
2023/10/27 15:43:49;;;;;;;1.48;0.60;;;27.40;37.40;;;;;;4981484;28;45201;-79
2023/10/27 15:46:15;;;;;;;0.70;0.50;;;27.40;37.40;;;;;;4971509;28;45409;-82
2023/10/27 15:48:41;;;;;;;1.00;0.60;;;27.40;37.40;;;;;;4990639;28;45159;-80
2023/10/27 15:51:06;;;;;;;0.93;0.60;;;27.40;37.50;;;;;;4942878;28;45542;-80
2023/10/27 15:53:32;;;;;;;1.20;0.50;;;27.40;37.40;;;;;;4945226;28;45132;-79
2023/10/27 15:55:58;;;;;;;1.83;0.50;;;27.40;37.40;;;;;;4977046;28;45017;-80
2023/10/27 15:58:24;;;;;;;1.45;0.77;;;27.40;37.40;;;;;;4982300;28;44947;-84
2023/10/27 16:00:50;;;;;;;0.80;0.50;;;27.40;37.40;;;;;;4975387;28;45547;-80
2023/10/27 16:03:17;;;;;;;0.70;0.60;;;27.40;37.40;;;;;;4967189;28;45236;-81
2023/10/27 16:05:42;;;;;;;1.30;0.80;;;27.40;38.00;;;;;;4947829;28;45301;-83
2023/10/27 16:08:08;;;;;;;1.00;0.60;;;27.40;37.40;;;;;;4975279;28;45189;-85
2023/10/27 16:10:35;;;;;;;1.17;0.60;;;27.40;37.40;;;;;;4980132;28;45470;-80
2023/10/27 16:13:04;;;;;;;2.20;0.70;;;27.40;37.40;;;;;;4982300;28;45260;-80
2023/10/27 16:15:31;;;;;;;1.48;0.65;;;27.40;37.40;;;;;;4994406;28;45281;-80
2023/10/27 16:17:57;;;;;;;0.90;0.60;;;27.40;38.00;;;;;;4979891;28;45759;-83
2023/10/27 16:20:23;;;;;;;1.73;0.70;;;27.40;37.50;;;;;;4964182;28;46121;-81
2023/10/27 16:22:50;;;;;;;1.23;0.60;;;27.40;37.40;;;;;;4982919;28;46058;-82
2023/10/27 16:25:16;;;;;;;0.95;0.52;;;27.40;37.40;;;;;;4996028;28;45257;-80
2023/10/27 16:27:42;;;;;;;0.93;0.70;;;27.30;37.30;;;;;;4966283;28;45231;-83
2023/10/27 16:30:09;;;;;;;1.00;0.70;;;27.40;37.40;;;;;;4959269;28;46159;-80
2023/10/27 16:32:34;;;;;;;1.67;1.10;;;27.40;37.40;;;;;;4962690;28;45249;-81
2023/10/27 16:35:03;;;;;;;1.38;1.27;;;27.40;37.40;;;;;;4993568;28;45351;-84
2023/10/27 16:37:29;;;;;;;2.15;1.67;;;27.40;37.40;;;;;;4981301;28;44878;-83
2023/10/27 16:39:55;;;;;;;2.25;1.80;;;27.40;37.40;;;;;;4976330;28;45267;-82
2023/10/27 16:42:21;;;;;;;2.20;2.00;;;27.30;37.40;;;;;;4929681;28;45302;-80
2023/10/27 16:44:47;;;;;;;3.58;2.40;;;27.40;37.40;;;;;;4967286;28;45480;-81
2023/10/27 16:47:14;;;;;;;3.38;2.53;;;27.40;37.40;;;;;;4943256;28;44872;-80
2023/10/27 16:49:40;;;;;;;3.20;2.80;;;27.40;37.40;;;;;;4960237;28;46357;-81
2023/10/27 16:52:07;;;;;;;3.13;2.83;;;27.40;37.40;;;;;;4963405;28;44995;-82
2023/10/27 16:54:32;;;;;;;3.22;2.90;;;27.40;37.40;;;;;;4977957;28;45152;-80
2023/10/27 16:56:58;;;;;;;3.30;2.80;;;27.30;37.40;;;;;;4963237;28;44750;-83
2023/10/27 16:59:26;;;;;;;3.03;2.70;;;27.30;37.40;;;;;;4946648;28;47120;-83
2023/10/27 17:01:54;;;;;;;3.30;3.00;;;27.40;37.40;;;;;;4974488;28;45654;-86
2023/10/27 17:04:21;;;;;;;3.50;3.20;;;27.40;37.40;;;;;;4977439;28;45214;-81
2023/10/27 17:06:48;;;;;;;3.75;3.05;;;27.30;37.40;;;;;;4976844;28;45150;-81
2023/10/27 17:09:14;;;;;;;3.60;3.30;;;27.30;37.40;;;;;;4948493;28;45799;-80